sensor_id;sensor_type;location;lat;lon;timestamp;temperature;humidity
34768;DHT22;21755;43.608;1.236;2024-02-21T00:00:56;8.50;99.90
34768;DHT22;21755;43.608;1.236;2024-02-21T00:03:22;8.50;99.90
34768;DHT22;21755;43.608;1.236;2024-02-21T00:05:48;8.50;99.90
34768;DHT22;21755;43.608;1.236;2024-02-21T00:08:14;8.50;99.90
34768;DHT22;21755;43.608;1.236;2024-02-21T00:10:40;8.50;99.90
34768;DHT22;21755;43.608;1.236;2024-02-21T00:13:06;8.40;99.90
34768;DHT22;21755;43.608;1.236;2024-02-21T00:15:31;8.40;99.90
34768;DHT22;21755;43.608;1.236;2024-02-21T00:17:57;8.40;99.90
34768;DHT22;21755;43.608;1.236;2024-02-21T00:20:23;8.40;99.90
34768;DHT22;21755;43.608;1.236;2024-02-21T00:22:51;8.40;99.90
34768;DHT22;21755;43.608;1.236;2024-02-21T00:25:17;8.40;99.90
34768;DHT22;21755;43.608;1.236;2024-02-21T00:27:43;8.40;99.90
34768;DHT22;21755;43.608;1.236;2024-02-21T00:30:09;8.40;99.90
34768;DHT22;21755;43.608;1.236;2024-02-21T00:32:36;8.30;99.90
34768;DHT22;21755;43.608;1.236;2024-02-21T00:35:02;8.40;99.90
34768;DHT22;21755;43.608;1.236;2024-02-21T00:37:28;8.40;99.90
34768;DHT22;21755;43.608;1.236;2024-02-21T00:39:54;8.30;99.90
34768;DHT22;21755;43.608;1.236;2024-02-21T00:42:20;8.30;99.90
34768;DHT22;21755;43.608;1.236;2024-02-21T00:44:46;8.30;99.90
34768;DHT22;21755;43.608;1.236;2024-02-21T00:47:12;8.30;99.90
34768;DHT22;21755;43.608;1.236;2024-02-21T00:49:38;8.30;99.90
34768;DHT22;21755;43.608;1.236;2024-02-21T00:52:04;8.30;99.90
34768;DHT22;21755;43.608;1.236;2024-02-21T00:54:30;8.30;1.00
34768;DHT22;21755;43.608;1.236;2024-02-21T00:56:56;8.30;1.00
34768;DHT22;21755;43.608;1.236;2024-02-21T00:59:22;8.30;1.00
34768;DHT22;21755;43.608;1.236;2024-02-21T01:01:48;8.30;1.00
34768;DHT22;21755;43.608;1.236;2024-02-21T01:04:13;8.30;1.00
34768;DHT22;21755;43.608;1.236;2024-02-21T01:06:39;8.30;1.00
34768;DHT22;21755;43.608;1.236;2024-02-21T01:09:08;8.30;1.00
34768;DHT22;21755;43.608;1.236;2024-02-21T01:11:34;8.30;1.00
34768;DHT22;21755;43.608;1.236;2024-02-21T01:14:00;8.30;1.00
34768;DHT22;21755;43.608;1.236;2024-02-21T01:16:26;8.30;1.00
34768;DHT22;21755;43.608;1.236;2024-02-21T01:18:52;8.20;1.00
34768;DHT22;21755;43.608;1.236;2024-02-21T01:21:18;8.20;1.00
34768;DHT22;21755;43.608;1.236;2024-02-21T01:23:43;8.20;1.00
34768;DHT22;21755;43.608;1.236;2024-02-21T01:26:09;8.20;1.00
34768;DHT22;21755;43.608;1.236;2024-02-21T01:28:38;8.20;1.00
34768;DHT22;21755;43.608;1.236;2024-02-21T01:31:04;8.20;1.00
34768;DHT22;21755;43.608;1.236;2024-02-21T01:33:30;8.20;1.00
34768;DHT22;21755;43.608;1.236;2024-02-21T01:36:02;8.20;1.00
34768;DHT22;21755;43.608;1.236;2024-02-21T01:38:28;8.20;1.00
34768;DHT22;21755;43.608;1.236;2024-02-21T01:40:55;8.20;1.00
34768;DHT22;21755;43.608;1.236;2024-02-21T01:43:22;8.20;1.00
34768;DHT22;21755;43.608;1.236;2024-02-21T01:45:53;8.20;1.00
34768;DHT22;21755;43.608;1.236;2024-02-21T01:48:21;8.10;1.00
34768;DHT22;21755;43.608;1.236;2024-02-21T01:50:49;8.10;1.00
34768;DHT22;21755;43.608;1.236;2024-02-21T01:53:18;8.20;1.00
34768;DHT22;21755;43.608;1.236;2024-02-21T01:55:49;8.10;1.00
34768;DHT22;21755;43.608;1.236;2024-02-21T01:58:15;8.10;1.00
34768;DHT22;21755;43.608;1.236;2024-02-21T02:00:45;8.10;1.00
34768;DHT22;21755;43.608;1.236;2024-02-21T02:03:13;8.10;1.00
34768;DHT22;21755;43.608;1.236;2024-02-21T02:05:49;8.10;1.00
34768;DHT22;21755;43.608;1.236;2024-02-21T02:08:16;8.00;1.00
34768;DHT22;21755;43.608;1.236;2024-02-21T02:10:43;8.00;1.00
34768;DHT22;21755;43.608;1.236;2024-02-21T02:13:09;8.00;1.00
34768;DHT22;21755;43.608;1.236;2024-02-21T02:15:42;8.00;1.00
34768;DHT22;21755;43.608;1.236;2024-02-21T02:18:08;8.00;1.00
34768;DHT22;21755;43.608;1.236;2024-02-21T02:20:35;8.00;1.00
34768;DHT22;21755;43.608;1.236;2024-02-21T02:23:31;8.00;1.00
34768;DHT22;21755;43.608;1.236;2024-02-21T02:25:57;8.00;1.00
34768;DHT22;21755;43.608;1.236;2024-02-21T02:28:23;7.90;1.00
34768;DHT22;21755;43.608;1.236;2024-02-21T02:30:50;7.90;1.00
34768;DHT22;21755;43.608;1.236;2024-02-21T02:33:16;7.90;1.00
34768;DHT22;21755;43.608;1.236;2024-02-21T02:35:45;7.90;1.00
34768;DHT22;21755;43.608;1.236;2024-02-21T02:38:11;7.90;1.00
34768;DHT22;21755;43.608;1.236;2024-02-21T02:40:39;7.80;1.00
34768;DHT22;21755;43.608;1.236;2024-02-21T02:43:06;7.80;1.00
34768;DHT22;21755;43.608;1.236;2024-02-21T02:45:32;7.80;1.00
34768;DHT22;21755;43.608;1.236;2024-02-21T02:47:59;7.80;1.00
34768;DHT22;21755;43.608;1.236;2024-02-21T02:50:26;7.80;1.00
34768;DHT22;21755;43.608;1.236;2024-02-21T02:52:55;7.80;1.00
34768;DHT22;21755;43.608;1.236;2024-02-21T02:55:21;7.80;1.00
34768;DHT22;21755;43.608;1.236;2024-02-21T02:57:48;7.70;1.00
34768;DHT22;21755;43.608;1.236;2024-02-21T03:00:14;7.70;1.00
34768;DHT22;21755;43.608;1.236;2024-02-21T03:02:42;7.70;1.00
34768;DHT22;21755;43.608;1.236;2024-02-21T03:05:14;7.70;1.00
34768;DHT22;21755;43.608;1.236;2024-02-21T03:07:40;7.60;1.00
34768;DHT22;21755;43.608;1.236;2024-02-21T03:10:06;7.60;1.00
34768;DHT22;21755;43.608;1.236;2024-02-21T03:12:32;7.60;1.00
34768;DHT22;21755;43.608;1.236;2024-02-21T03:14:58;7.60;1.00
34768;DHT22;21755;43.608;1.236;2024-02-21T03:17:25;7.50;1.00
34768;DHT22;21755;43.608;1.236;2024-02-21T03:19:52;7.50;99.90
34768;DHT22;21755;43.608;1.236;2024-02-21T03:22:19;7.50;99.90
34768;DHT22;21755;43.608;1.236;2024-02-21T03:24:45;7.50;99.90
34768;DHT22;21755;43.608;1.236;2024-02-21T03:27:11;7.50;99.90
34768;DHT22;21755;43.608;1.236;2024-02-21T03:29:36;7.40;99.90
34768;DHT22;21755;43.608;1.236;2024-02-21T03:32:02;7.40;99.90
34768;DHT22;21755;43.608;1.236;2024-02-21T03:34:28;7.40;99.90
34768;DHT22;21755;43.608;1.236;2024-02-21T03:36:54;7.40;99.90
34768;DHT22;21755;43.608;1.236;2024-02-21T03:39:20;7.40;99.90
34768;DHT22;21755;43.608;1.236;2024-02-21T03:41:47;7.30;99.90
34768;DHT22;21755;43.608;1.236;2024-02-21T03:44:13;7.30;99.90
34768;DHT22;21755;43.608;1.236;2024-02-21T03:46:39;7.30;99.90
34768;DHT22;21755;43.608;1.236;2024-02-21T03:49:04;7.20;99.90
34768;DHT22;21755;43.608;1.236;2024-02-21T03:51:30;7.20;99.90
34768;DHT22;21755;43.608;1.236;2024-02-21T03:53:56;7.20;99.90
34768;DHT22;21755;43.608;1.236;2024-02-21T03:56:23;7.20;99.90
34768;DHT22;21755;43.608;1.236;2024-02-21T03:58:48;7.20;99.90
34768;DHT22;21755;43.608;1.236;2024-02-21T04:01:15;7.10;99.90
34768;DHT22;21755;43.608;1.236;2024-02-21T04:03:43;7.10;99.90
34768;DHT22;21755;43.608;1.236;2024-02-21T04:06:09;7.10;99.90
34768;DHT22;21755;43.608;1.236;2024-02-21T04:08:35;7.10;99.90
34768;DHT22;21755;43.608;1.236;2024-02-21T04:11:01;7.10;99.90
34768;DHT22;21755;43.608;1.236;2024-02-21T04:13:27;7.10;99.90
34768;DHT22;21755;43.608;1.236;2024-02-21T04:15:53;7.00;99.90
34768;DHT22;21755;43.608;1.236;2024-02-21T04:18:19;7.00;99.90
34768;DHT22;21755;43.608;1.236;2024-02-21T04:20:45;7.00;99.90
34768;DHT22;21755;43.608;1.236;2024-02-21T04:23:10;7.00;99.90
34768;DHT22;21755;43.608;1.236;2024-02-21T04:25:37;6.90;99.90
34768;DHT22;21755;43.608;1.236;2024-02-21T04:28:03;6.90;99.90
34768;DHT22;21755;43.608;1.236;2024-02-21T04:30:29;6.90;99.90
34768;DHT22;21755;43.608;1.236;2024-02-21T04:32:54;6.90;99.90
34768;DHT22;21755;43.608;1.236;2024-02-21T04:35:21;6.80;99.90
34768;DHT22;21755;43.608;1.236;2024-02-21T04:37:46;6.80;99.90
34768;DHT22;21755;43.608;1.236;2024-02-21T04:40:12;6.80;99.90
34768;DHT22;21755;43.608;1.236;2024-02-21T04:42:39;6.80;99.90
34768;DHT22;21755;43.608;1.236;2024-02-21T04:45:06;6.80;99.90
34768;DHT22;21755;43.608;1.236;2024-02-21T04:47:32;6.70;99.90
34768;DHT22;21755;43.608;1.236;2024-02-21T04:49:58;6.80;99.90
34768;DHT22;21755;43.608;1.236;2024-02-21T04:52:23;6.70;99.90
34768;DHT22;21755;43.608;1.236;2024-02-21T04:54:49;6.70;99.90
34768;DHT22;21755;43.608;1.236;2024-02-21T04:57:15;6.70;99.90
34768;DHT22;21755;43.608;1.236;2024-02-21T04:59:44;6.60;99.90
34768;DHT22;21755;43.608;1.236;2024-02-21T05:02:11;6.60;99.90
34768;DHT22;21755;43.608;1.236;2024-02-21T05:04:37;6.60;99.90
34768;DHT22;21755;43.608;1.236;2024-02-21T05:07:04;6.60;99.90
34768;DHT22;21755;43.608;1.236;2024-02-21T05:09:31;6.60;99.90
34768;DHT22;21755;43.608;1.236;2024-02-21T05:11:57;6.50;99.90
34768;DHT22;21755;43.608;1.236;2024-02-21T05:14:27;6.50;99.90
34768;DHT22;21755;43.608;1.236;2024-02-21T05:16:54;6.50;99.90
34768;DHT22;21755;43.608;1.236;2024-02-21T05:19:19;6.50;99.90
34768;DHT22;21755;43.608;1.236;2024-02-21T05:21:46;6.50;99.90
34768;DHT22;21755;43.608;1.236;2024-02-21T05:24:12;6.50;99.90
34768;DHT22;21755;43.608;1.236;2024-02-21T05:26:38;6.50;99.90
34768;DHT22;21755;43.608;1.236;2024-02-21T05:29:03;6.40;99.90
34768;DHT22;21755;43.608;1.236;2024-02-21T05:31:54;6.40;99.90
34768;DHT22;21755;43.608;1.236;2024-02-21T05:34:22;6.40;99.90
34768;DHT22;21755;43.608;1.236;2024-02-21T05:36:48;6.40;99.90
34768;DHT22;21755;43.608;1.236;2024-02-21T05:39:15;6.30;99.90
34768;DHT22;21755;43.608;1.236;2024-02-21T05:41:45;6.30;99.90
34768;DHT22;21755;43.608;1.236;2024-02-21T05:44:11;6.30;99.90
34768;DHT22;21755;43.608;1.236;2024-02-21T05:46:37;6.30;99.90
34768;DHT22;21755;43.608;1.236;2024-02-21T05:49:03;6.30;99.90
34768;DHT22;21755;43.608;1.236;2024-02-21T05:51:32;6.30;99.90
34768;DHT22;21755;43.608;1.236;2024-02-21T05:53:59;6.30;99.90
34768;DHT22;21755;43.608;1.236;2024-02-21T05:56:24;6.30;99.90
34768;DHT22;21755;43.608;1.236;2024-02-21T05:58:50;6.30;99.90
34768;DHT22;21755;43.608;1.236;2024-02-21T06:01:16;6.30;99.90
34768;DHT22;21755;43.608;1.236;2024-02-21T06:03:43;6.30;99.90
34768;DHT22;21755;43.608;1.236;2024-02-21T06:06:09;6.20;99.90
34768;DHT22;21755;43.608;1.236;2024-02-21T06:08:35;6.20;99.90
34768;DHT22;21755;43.608;1.236;2024-02-21T06:11:01;6.30;99.90
34768;DHT22;21755;43.608;1.236;2024-02-21T06:13:27;6.20;99.90
34768;DHT22;21755;43.608;1.236;2024-02-21T06:15:53;5.90;99.90
34768;DHT22;21755;43.608;1.236;2024-02-21T06:18:19;5.40;99.90
34768;DHT22;21755;43.608;1.236;2024-02-21T06:20:46;5.10;99.90
34768;DHT22;21755;43.608;1.236;2024-02-21T06:23:16;4.80;99.90
34768;DHT22;21755;43.608;1.236;2024-02-21T06:25:42;4.60;1.00
34768;DHT22;21755;43.608;1.236;2024-02-21T06:28:09;4.50;1.00
34768;DHT22;21755;43.608;1.236;2024-02-21T06:30:35;4.30;1.00
34768;DHT22;21755;43.608;1.236;2024-02-21T06:33:01;4.10;1.00
34768;DHT22;21755;43.608;1.236;2024-02-21T06:35:28;4.00;1.00
34768;DHT22;21755;43.608;1.236;2024-02-21T06:37:54;3.90;1.00
34768;DHT22;21755;43.608;1.236;2024-02-21T06:40:22;4.00;1.00
34768;DHT22;21755;43.608;1.236;2024-02-21T06:42:48;3.90;1.00
34768;DHT22;21755;43.608;1.236;2024-02-21T06:45:14;3.90;1.00
34768;DHT22;21755;43.608;1.236;2024-02-21T06:47:41;3.90;1.00
34768;DHT22;21755;43.608;1.236;2024-02-21T06:50:07;3.90;1.00
34768;DHT22;21755;43.608;1.236;2024-02-21T06:52:34;3.90;1.00
34768;DHT22;21755;43.608;1.236;2024-02-21T06:55:00;4.00;1.00
34768;DHT22;21755;43.608;1.236;2024-02-21T06:57:26;4.10;1.00
34768;DHT22;21755;43.608;1.236;2024-02-21T06:59:52;4.10;1.00
34768;DHT22;21755;43.608;1.236;2024-02-21T07:02:18;4.00;1.00
34768;DHT22;21755;43.608;1.236;2024-02-21T07:04:44;4.00;1.00
34768;DHT22;21755;43.608;1.236;2024-02-21T07:07:09;4.00;1.00
34768;DHT22;21755;43.608;1.236;2024-02-21T07:09:35;4.00;1.00
34768;DHT22;21755;43.608;1.236;2024-02-21T07:12:01;4.00;1.00
34768;DHT22;21755;43.608;1.236;2024-02-21T07:14:32;4.10;1.00
34768;DHT22;21755;43.608;1.236;2024-02-21T07:16:58;4.10;1.00
34768;DHT22;21755;43.608;1.236;2024-02-21T07:19:24;4.20;1.00
34768;DHT22;21755;43.608;1.236;2024-02-21T07:21:49;4.20;1.00
34768;DHT22;21755;43.608;1.236;2024-02-21T07:24:15;4.20;1.00
34768;DHT22;21755;43.608;1.236;2024-02-21T07:26:42;4.30;1.00
34768;DHT22;21755;43.608;1.236;2024-02-21T07:29:09;4.40;1.00
34768;DHT22;21755;43.608;1.236;2024-02-21T07:31:44;4.50;1.90
34768;DHT22;21755;43.608;1.236;2024-02-21T07:34:10;4.60;1.00
34768;DHT22;21755;43.608;1.236;2024-02-21T07:36:36;4.70;1.00
34768;DHT22;21755;43.608;1.236;2024-02-21T07:39:04;4.80;1.00
34768;DHT22;21755;43.608;1.236;2024-02-21T07:41:32;4.90;1.00
34768;DHT22;21755;43.608;1.236;2024-02-21T07:44:00;4.90;1.00
34768;DHT22;21755;43.608;1.236;2024-02-21T07:46:26;5.00;1.00
34768;DHT22;21755;43.608;1.236;2024-02-21T07:48:52;5.10;1.00
34768;DHT22;21755;43.608;1.236;2024-02-21T07:51:17;5.10;1.00
34768;DHT22;21755;43.608;1.236;2024-02-21T07:53:45;5.20;1.60
34768;DHT22;21755;43.608;1.236;2024-02-21T07:56:15;5.20;1.00
34768;DHT22;21755;43.608;1.236;2024-02-21T07:58:41;5.20;1.90
34768;DHT22;21755;43.608;1.236;2024-02-21T08:01:08;5.30;2.80
34768;DHT22;21755;43.608;1.236;2024-02-21T08:03:34;5.30;8.30
34768;DHT22;21755;43.608;1.236;2024-02-21T08:06:00;5.40;14.00
34768;DHT22;21755;43.608;1.236;2024-02-21T08:08:27;5.50;14.80
34768;DHT22;21755;43.608;1.236;2024-02-21T08:10:52;5.60;12.90
34768;DHT22;21755;43.608;1.236;2024-02-21T08:13:18;5.60;10.40
34768;DHT22;21755;43.608;1.236;2024-02-21T08:15:44;5.60;11.50
34768;DHT22;21755;43.608;1.236;2024-02-21T08:18:10;5.70;12.40
34768;DHT22;21755;43.608;1.236;2024-02-21T08:20:36;5.70;13.30
34768;DHT22;21755;43.608;1.236;2024-02-21T08:23:02;5.80;14.90
34768;DHT22;21755;43.608;1.236;2024-02-21T08:25:28;5.80;15.00
34768;DHT22;21755;43.608;1.236;2024-02-21T08:28:00;5.80;13.70
34768;DHT22;21755;43.608;1.236;2024-02-21T08:30:26;5.80;14.00
34768;DHT22;21755;43.608;1.236;2024-02-21T08:32:52;5.80;15.90
34768;DHT22;21755;43.608;1.236;2024-02-21T08:35:20;5.90;19.00
34768;DHT22;21755;43.608;1.236;2024-02-21T08:37:48;6.00;21.60
34768;DHT22;21755;43.608;1.236;2024-02-21T08:40:14;6.10;23.00
34768;DHT22;21755;43.608;1.236;2024-02-21T08:42:43;6.20;22.40
34768;DHT22;21755;43.608;1.236;2024-02-21T08:45:10;6.30;25.00
34768;DHT22;21755;43.608;1.236;2024-02-21T08:47:36;6.50;26.20
34768;DHT22;21755;43.608;1.236;2024-02-21T08:50:02;6.60;25.20
34768;DHT22;21755;43.608;1.236;2024-02-21T08:52:28;6.70;24.00
34768;DHT22;21755;43.608;1.236;2024-02-21T08:54:54;6.80;22.40
34768;DHT22;21755;43.608;1.236;2024-02-21T08:57:20;6.90;21.60
34768;DHT22;21755;43.608;1.236;2024-02-21T08:59:46;7.00;20.30
34768;DHT22;21755;43.608;1.236;2024-02-21T09:02:13;7.10;20.90
34768;DHT22;21755;43.608;1.236;2024-02-21T09:04:39;7.20;23.30
34768;DHT22;21755;43.608;1.236;2024-02-21T09:07:05;7.30;21.30
34768;DHT22;21755;43.608;1.236;2024-02-21T09:09:31;7.50;22.90
34768;DHT22;21755;43.608;1.236;2024-02-21T09:11:58;7.60;24.40
34768;DHT22;21755;43.608;1.236;2024-02-21T09:14:32;7.80;23.30
34768;DHT22;21755;43.608;1.236;2024-02-21T09:16:58;8.00;20.50
34768;DHT22;21755;43.608;1.236;2024-02-21T09:19:23;8.30;16.10
34768;DHT22;21755;43.608;1.236;2024-02-21T09:21:50;8.50;12.20
34768;DHT22;21755;43.608;1.236;2024-02-21T09:24:15;8.60;5.90
34768;DHT22;21755;43.608;1.236;2024-02-21T09:26:41;8.80;1.00
34768;DHT22;21755;43.608;1.236;2024-02-21T09:29:07;8.80;1.00
34768;DHT22;21755;43.608;1.236;2024-02-21T09:31:33;8.80;1.00
34768;DHT22;21755;43.608;1.236;2024-02-21T09:33:59;8.90;1.00
34768;DHT22;21755;43.608;1.236;2024-02-21T09:36:25;8.90;1.00
34768;DHT22;21755;43.608;1.236;2024-02-21T09:38:51;9.10;1.00
34768;DHT22;21755;43.608;1.236;2024-02-21T09:41:22;9.20;1.00
34768;DHT22;21755;43.608;1.236;2024-02-21T09:43:50;9.40;1.00
34768;DHT22;21755;43.608;1.236;2024-02-21T09:46:20;9.50;1.00
34768;DHT22;21755;43.608;1.236;2024-02-21T09:51:33;9.70;1.00
34768;DHT22;21755;43.608;1.236;2024-02-21T09:54:00;9.70;1.00
34768;DHT22;21755;43.608;1.236;2024-02-21T09:56:28;9.70;1.00
34768;DHT22;21755;43.608;1.236;2024-02-21T09:58:54;9.70;1.00
34768;DHT22;21755;43.608;1.236;2024-02-21T10:01:20;9.80;1.00
34768;DHT22;21755;43.608;1.236;2024-02-21T10:03:46;9.80;1.00
34768;DHT22;21755;43.608;1.236;2024-02-21T10:06:12;9.90;1.00
34768;DHT22;21755;43.608;1.236;2024-02-21T10:08:38;9.90;1.00
34768;DHT22;21755;43.608;1.236;2024-02-21T10:11:04;10.00;1.00
34768;DHT22;21755;43.608;1.236;2024-02-21T10:13:30;10.10;1.00
34768;DHT22;21755;43.608;1.236;2024-02-21T10:16:06;10.20;1.00
34768;DHT22;21755;43.608;1.236;2024-02-21T10:18:36;10.60;1.00
34768;DHT22;21755;43.608;1.236;2024-02-21T10:21:07;10.90;1.00
34768;DHT22;21755;43.608;1.236;2024-02-21T10:23:46;11.20;1.00
34768;DHT22;21755;43.608;1.236;2024-02-21T10:26:13;11.50;1.00
34768;DHT22;21755;43.608;1.236;2024-02-21T10:28:39;11.60;1.00
34768;DHT22;21755;43.608;1.236;2024-02-21T10:31:08;11.70;99.90
34768;DHT22;21755;43.608;1.236;2024-02-21T10:33:35;11.80;99.90
34768;DHT22;21755;43.608;1.236;2024-02-21T10:36:10;11.80;99.90
34768;DHT22;21755;43.608;1.236;2024-02-21T10:38:38;11.80;99.90
34768;DHT22;21755;43.608;1.236;2024-02-21T10:41:07;11.70;99.90
34768;DHT22;21755;43.608;1.236;2024-02-21T10:43:40;11.70;99.90
34768;DHT22;21755;43.608;1.236;2024-02-21T10:46:09;11.70;99.90
34768;DHT22;21755;43.608;1.236;2024-02-21T10:48:43;11.70;99.90
34768;DHT22;21755;43.608;1.236;2024-02-21T10:51:20;11.80;99.90
34768;DHT22;21755;43.608;1.236;2024-02-21T10:56:39;11.90;99.90
34768;DHT22;21755;43.608;1.236;2024-02-21T10:59:07;12.00;99.90
34768;DHT22;21755;43.608;1.236;2024-02-21T11:01:34;12.10;99.90
34768;DHT22;21755;43.608;1.236;2024-02-21T11:04:05;12.20;99.90
34768;DHT22;21755;43.608;1.236;2024-02-21T11:06:32;12.30;99.90
34768;DHT22;21755;43.608;1.236;2024-02-21T11:09:03;12.40;99.90
34768;DHT22;21755;43.608;1.236;2024-02-21T11:11:55;12.40;99.90
34768;DHT22;21755;43.608;1.236;2024-02-21T11:14:21;12.50;99.90
34768;DHT22;21755;43.608;1.236;2024-02-21T11:16:47;12.50;99.90
34768;DHT22;21755;43.608;1.236;2024-02-21T11:21:50;12.60;99.90
34768;DHT22;21755;43.608;1.236;2024-02-21T11:24:34;12.60;99.90
34768;DHT22;21755;43.608;1.236;2024-02-21T11:27:12;12.60;99.90
34768;DHT22;21755;43.608;1.236;2024-02-21T11:29:46;12.70;99.90
34768;DHT22;21755;43.608;1.236;2024-02-21T11:32:19;12.70;99.90
34768;DHT22;21755;43.608;1.236;2024-02-21T11:35:01;12.90;99.90
34768;DHT22;21755;43.608;1.236;2024-02-21T11:37:28;13.00;99.90
34768;DHT22;21755;43.608;1.236;2024-02-21T11:39:57;13.20;99.90
34768;DHT22;21755;43.608;1.236;2024-02-21T11:42:27;13.30;99.90
34768;DHT22;21755;43.608;1.236;2024-02-21T11:44:54;13.50;99.90
34768;DHT22;21755;43.608;1.236;2024-02-21T11:47:23;13.60;99.90
34768;DHT22;21755;43.608;1.236;2024-02-21T11:49:49;13.70;99.90
34768;DHT22;21755;43.608;1.236;2024-02-21T11:52:22;13.80;99.90
34768;DHT22;21755;43.608;1.236;2024-02-21T11:54:51;13.90;99.90
34768;DHT22;21755;43.608;1.236;2024-02-21T11:57:18;14.00;76.60
34768;DHT22;21755;43.608;1.236;2024-02-21T11:59:45;14.00;99.90
34768;DHT22;21755;43.608;1.236;2024-02-21T12:02:12;14.00;67.60
34768;DHT22;21755;43.608;1.236;2024-02-21T12:04:38;14.10;35.40
34768;DHT22;21755;43.608;1.236;2024-02-21T12:07:05;14.10;1.00
34768;DHT22;21755;43.608;1.236;2024-02-21T12:09:31;14.10;57.60
34768;DHT22;21755;43.608;1.236;2024-02-21T12:12:04;14.10;1.00
34768;DHT22;21755;43.608;1.236;2024-02-21T12:14:32;14.10;1.00
34768;DHT22;21755;43.608;1.236;2024-02-21T12:16:59;14.10;95.90
34768;DHT22;21755;43.608;1.236;2024-02-21T12:19:26;14.20;90.70
34768;DHT22;21755;43.608;1.236;2024-02-21T12:21:54;14.20;47.70
34768;DHT22;21755;43.608;1.236;2024-02-21T12:24:25;14.20;83.00
34768;DHT22;21755;43.608;1.236;2024-02-21T12:26:52;14.30;66.40
34768;DHT22;21755;43.608;1.236;2024-02-21T12:29:22;14.30;1.00
34768;DHT22;21755;43.608;1.236;2024-02-21T12:31:48;14.40;1.00
34768;DHT22;21755;43.608;1.236;2024-02-21T12:34:15;14.40;1.00
34768;DHT22;21755;43.608;1.236;2024-02-21T12:36:42;14.50;1.00
34768;DHT22;21755;43.608;1.236;2024-02-21T12:39:10;14.50;13.80
34768;DHT22;21755;43.608;1.236;2024-02-21T12:41:36;14.60;70.70
34768;DHT22;21755;43.608;1.236;2024-02-21T12:44:07;14.60;55.80
34768;DHT22;21755;43.608;1.236;2024-02-21T12:46:34;14.70;99.90
34768;DHT22;21755;43.608;1.236;2024-02-21T12:49:00;14.70;58.60
34768;DHT22;21755;43.608;1.236;2024-02-21T12:51:26;14.70;1.00
34768;DHT22;21755;43.608;1.236;2024-02-21T12:53:52;14.70;1.00
34768;DHT22;21755;43.608;1.236;2024-02-21T12:56:18;14.80;1.00
34768;DHT22;21755;43.608;1.236;2024-02-21T12:58:44;14.80;1.00
34768;DHT22;21755;43.608;1.236;2024-02-21T13:01:10;14.80;1.00
34768;DHT22;21755;43.608;1.236;2024-02-21T13:03:36;14.90;1.00
34768;DHT22;21755;43.608;1.236;2024-02-21T13:06:04;15.00;1.00
34768;DHT22;21755;43.608;1.236;2024-02-21T13:08:30;15.00;7.50
34768;DHT22;21755;43.608;1.236;2024-02-21T13:10:55;15.10;1.00
34768;DHT22;21755;43.608;1.236;2024-02-21T13:13:22;15.20;99.90
34768;DHT22;21755;43.608;1.236;2024-02-21T13:15:48;15.20;99.90
34768;DHT22;21755;43.608;1.236;2024-02-21T13:18:13;15.30;99.90
34768;DHT22;21755;43.608;1.236;2024-02-21T13:20:39;15.30;99.90
34768;DHT22;21755;43.608;1.236;2024-02-21T13:23:05;15.30;99.90
34768;DHT22;21755;43.608;1.236;2024-02-21T13:25:31;15.30;99.90
34768;DHT22;21755;43.608;1.236;2024-02-21T13:27:57;15.40;99.90
34768;DHT22;21755;43.608;1.236;2024-02-21T13:30:23;15.30;90.70
34768;DHT22;21755;43.608;1.236;2024-02-21T13:32:50;15.40;99.90
34768;DHT22;21755;43.608;1.236;2024-02-21T13:35:16;15.40;99.90
34768;DHT22;21755;43.608;1.236;2024-02-21T13:37:42;15.40;9.30
34768;DHT22;21755;43.608;1.236;2024-02-21T13:40:09;15.40;1.00
34768;DHT22;21755;43.608;1.236;2024-02-21T13:42:36;15.40;16.70
34768;DHT22;21755;43.608;1.236;2024-02-21T13:45:03;15.40;1.00
34768;DHT22;21755;43.608;1.236;2024-02-21T13:47:31;15.40;1.00
34768;DHT22;21755;43.608;1.236;2024-02-21T13:49:57;15.50;99.90
34768;DHT22;21755;43.608;1.236;2024-02-21T13:52:23;15.40;99.90
34768;DHT22;21755;43.608;1.236;2024-02-21T13:54:52;15.50;1.00
34768;DHT22;21755;43.608;1.236;2024-02-21T13:57:18;15.50;1.00
34768;DHT22;21755;43.608;1.236;2024-02-21T13:59:44;15.50;1.00
34768;DHT22;21755;43.608;1.236;2024-02-21T14:02:10;15.50;59.60
34768;DHT22;21755;43.608;1.236;2024-02-21T14:04:35;15.50;99.90
34768;DHT22;21755;43.608;1.236;2024-02-21T14:07:01;15.60;1.00
34768;DHT22;21755;43.608;1.236;2024-02-21T14:09:28;15.60;19.60
34768;DHT22;21755;43.608;1.236;2024-02-21T14:11:57;15.50;1.00
34768;DHT22;21755;43.608;1.236;2024-02-21T14:14:23;15.60;1.00
34768;DHT22;21755;43.608;1.236;2024-02-21T14:16:49;15.60;62.90
34768;DHT22;21755;43.608;1.236;2024-02-21T14:19:15;15.60;99.90
34768;DHT22;21755;43.608;1.236;2024-02-21T14:21:41;15.60;99.90
34768;DHT22;21755;43.608;1.236;2024-02-21T14:24:07;15.70;99.90
34768;DHT22;21755;43.608;1.236;2024-02-21T14:26:34;15.70;99.90
34768;DHT22;21755;43.608;1.236;2024-02-21T14:29:01;15.70;79.60
34768;DHT22;21755;43.608;1.236;2024-02-21T14:31:32;15.60;53.40
34768;DHT22;21755;43.608;1.236;2024-02-21T14:33:58;15.60;6.40
34768;DHT22;21755;43.608;1.236;2024-02-21T14:36:26;15.50;99.90
34768;DHT22;21755;43.608;1.236;2024-02-21T14:38:52;15.50;99.90
34768;DHT22;21755;43.608;1.236;2024-02-21T14:41:18;15.50;1.00
34768;DHT22;21755;43.608;1.236;2024-02-21T14:43:45;15.50;1.00
34768;DHT22;21755;43.608;1.236;2024-02-21T14:46:12;15.40;1.00
34768;DHT22;21755;43.608;1.236;2024-02-21T14:48:38;15.40;1.00
34768;DHT22;21755;43.608;1.236;2024-02-21T14:51:04;15.40;1.00
34768;DHT22;21755;43.608;1.236;2024-02-21T14:53:30;15.40;99.90
34768;DHT22;21755;43.608;1.236;2024-02-21T14:55:56;15.50;99.90
34768;DHT22;21755;43.608;1.236;2024-02-21T14:58:23;15.40;1.00
34768;DHT22;21755;43.608;1.236;2024-02-21T15:00:49;15.50;1.00
34768;DHT22;21755;43.608;1.236;2024-02-21T15:03:18;15.50;99.90
34768;DHT22;21755;43.608;1.236;2024-02-21T15:05:47;15.50;1.00
34768;DHT22;21755;43.608;1.236;2024-02-21T15:08:13;15.50;99.90
34768;DHT22;21755;43.608;1.236;2024-02-21T15:10:43;15.50;1.00
34768;DHT22;21755;43.608;1.236;2024-02-21T15:13:09;15.50;1.00
34768;DHT22;21755;43.608;1.236;2024-02-21T15:15:35;15.50;1.00
34768;DHT22;21755;43.608;1.236;2024-02-21T15:18:00;15.40;99.90
34768;DHT22;21755;43.608;1.236;2024-02-21T15:20:26;15.40;3.40
34768;DHT22;21755;43.608;1.236;2024-02-21T15:22:53;15.40;1.00
34768;DHT22;21755;43.608;1.236;2024-02-21T15:25:19;15.30;30.00
34768;DHT22;21755;43.608;1.236;2024-02-21T15:27:45;15.20;25.30
34768;DHT22;21755;43.608;1.236;2024-02-21T15:30:12;15.20;7.70
34768;DHT22;21755;43.608;1.236;2024-02-21T15:32:39;15.10;99.90
34768;DHT22;21755;43.608;1.236;2024-02-21T15:35:06;15.00;99.90
34768;DHT22;21755;43.608;1.236;2024-02-21T15:37:35;15.00;99.90
34768;DHT22;21755;43.608;1.236;2024-02-21T15:40:01;14.90;99.90
34768;DHT22;21755;43.608;1.236;2024-02-21T15:42:31;14.90;99.90
34768;DHT22;21755;43.608;1.236;2024-02-21T15:44:58;14.80;99.90
34768;DHT22;21755;43.608;1.236;2024-02-21T15:47:27;14.80;99.90
34768;DHT22;21755;43.608;1.236;2024-02-21T15:49:53;14.70;99.90
34768;DHT22;21755;43.608;1.236;2024-02-21T15:52:19;14.70;99.90
34768;DHT22;21755;43.608;1.236;2024-02-21T15:54:46;14.60;99.90